Time;durP1;ratioP1;P1;durP2;ratioP2;P2;SDS_P1;SDS_P2;PMS_P1;PMS_P2;Temp;Humidity;BMP_temperature;BMP_pressure;BME280_temperature;BME280_humidity;BME280_pressure;Samples;Min_cycle;Max_cycle;Signal;HPM_P1;HPM_P2
2022/12/02 00:02:20;;;;;;;44.70;26.33;;;;;;;;;;6219473;28;20053;-69
2022/12/02 00:05:29;;;;;;;44.42;27.48;;;;;;;;;;6222175;28;20053;-69
2022/12/02 00:08:33;;;;;;;45.63;27.10;;;;;;;;;;6223535;28;20062;-70
2022/12/02 00:11:35;;;;;;;46.47;27.90;;;;;;;;;;6223128;28;20265;-69
2022/12/02 00:14:36;;;;;;;47.80;28.30;;;;;;;;;;6220480;28;20046;-69
2022/12/02 00:17:39;;;;;;;47.40;28.20;;;;;;;;;;6219722;28;20065;-70
2022/12/02 00:20:42;;;;;;;51.15;29.67;;;;;;;;;;6223845;28;20054;-70
2022/12/02 00:23:43;;;;;;;47.58;29.30;;;;;;;;;;6224938;28;20046;-69
2022/12/02 00:26:45;;;;;;;53.88;29.60;;;;;;;;;;6224754;28;20068;-69
2022/12/02 00:29:47;;;;;;;48.55;29.65;;;;;;;;;;6225873;28;20054;-68
2022/12/02 00:32:50;;;;;;;50.13;29.67;;;;;;;;;;6225397;28;20053;-71
2022/12/02 00:35:51;;;;;;;53.38;30.65;;;;;;;;;;6221551;28;20062;-69
2022/12/02 00:38:53;;;;;;;49.85;29.48;;;;;;;;;;6224436;28;20058;-70
2022/12/02 00:41:55;;;;;;;48.58;30.50;;;;;;;;;;6225904;28;20057;-70
2022/12/02 00:48:17;;;;;;;48.97;29.13;;;;;;;;;;6226540;28;20058;-70
2022/12/02 00:51:19;;;;;;;49.75;29.63;;;;;;;;;;6225358;28;20050;-69
2022/12/02 00:54:20;;;;;;;51.95;30.40;;;;;;;;;;6223529;28;20057;-70
2022/12/02 00:57:22;;;;;;;49.78;26.77;;;;;;;;;;6224234;28;20054;-69
2022/12/02 01:00:24;;;;;;;45.90;27.40;;;;;;;;;;6224525;28;20050;-69
2022/12/02 01:03:27;;;;;;;51.60;28.95;;;;;;;;;;6225091;28;20041;-69
2022/12/02 01:06:28;;;;;;;45.88;27.42;;;;;;;;;;6227174;28;20058;-70
2022/12/02 01:09:30;;;;;;;43.03;24.98;;;;;;;;;;6224518;28;20057;-70
2022/12/02 01:12:32;;;;;;;44.58;26.98;;;;;;;;;;6224109;28;20346;-69
2022/12/02 01:15:33;;;;;;;42.17;25.55;;;;;;;;;;6225439;28;20085;-70
2022/12/02 01:18:36;;;;;;;43.60;26.23;;;;;;;;;;6225219;28;20089;-70
2022/12/02 01:21:38;;;;;;;46.00;27.50;;;;;;;;;;6224212;28;20053;-70
2022/12/02 01:24:39;;;;;;;44.50;26.52;;;;;;;;;;6225589;28;20121;-70
2022/12/02 01:27:41;;;;;;;44.72;25.45;;;;;;;;;;6223046;28;20060;-70
2022/12/02 01:30:43;;;;;;;43.60;25.70;;;;;;;;;;6220838;28;20360;-69
2022/12/02 01:33:47;;;;;;;43.00;25.83;;;;;;;;;;6220505;28;20356;-70
2022/12/02 01:36:48;;;;;;;37.55;23.67;;;;;;;;;;6224114;28;20330;-72
2022/12/02 01:39:50;;;;;;;43.30;24.92;;;;;;;;;;6221661;28;20119;-69
2022/12/02 01:42:52;;;;;;;39.13;24.60;;;;;;;;;;6221758;28;20076;-71
2022/12/02 01:45:54;;;;;;;41.97;25.67;;;;;;;;;;6225225;28;20055;-71
2022/12/02 01:48:57;;;;;;;43.10;25.33;;;;;;;;;;6224646;28;20325;-71
2022/12/02 01:51:59;;;;;;;41.33;24.48;;;;;;;;;;6223044;28;20045;-71
2022/12/02 01:55:01;;;;;;;38.17;23.33;;;;;;;;;;6225347;28;20695;-71
2022/12/02 01:58:03;;;;;;;41.00;23.50;;;;;;;;;;6222318;28;20122;-71
2022/12/02 02:01:23;;;;;;;39.83;24.75;;;;;;;;;;6223934;28;20069;-71
2022/12/02 02:04:26;;;;;;;40.70;23.77;;;;;;;;;;6224553;28;20045;-70
2022/12/02 02:07:28;;;;;;;38.50;24.38;;;;;;;;;;6222007;28;20050;-72
2022/12/02 02:10:30;;;;;;;41.95;23.60;;;;;;;;;;6222956;28;20058;-69
2022/12/02 02:13:32;;;;;;;42.78;25.27;;;;;;;;;;6224224;28;20330;-71
2022/12/02 02:16:34;;;;;;;35.05;23.25;;;;;;;;;;6222894;28;20050;-70
2022/12/02 02:19:37;;;;;;;39.45;23.75;;;;;;;;;;6225636;28;20045;-69
2022/12/02 02:22:42;;;;;;;40.05;23.27;;;;;;;;;;6226184;28;20280;-71
2022/12/02 02:25:46;;;;;;;36.38;23.23;;;;;;;;;;6217700;28;20069;-69
2022/12/02 02:28:47;;;;;;;39.15;24.83;;;;;;;;;;6218142;28;20404;-71
2022/12/02 02:31:49;;;;;;;42.83;23.85;;;;;;;;;;6223232;28;20442;-70
2022/12/02 02:34:51;;;;;;;38.58;23.80;;;;;;;;;;6226174;28;20062;-69
2022/12/02 02:37:54;;;;;;;40.20;23.38;;;;;;;;;;6223225;28;20062;-68
2022/12/02 02:40:57;;;;;;;40.60;23.00;;;;;;;;;;6222947;28;20061;-69
2022/12/02 02:43:59;;;;;;;40.27;24.33;;;;;;;;;;6222169;28;20053;-71
2022/12/02 02:47:00;;;;;;;40.25;23.67;;;;;;;;;;6220684;28;20429;-69
2022/12/02 02:50:02;;;;;;;37.22;24.08;;;;;;;;;;6223488;28;20061;-72
2022/12/02 02:53:05;;;;;;;39.17;23.67;;;;;;;;;;6222567;28;20046;-69
2022/12/02 02:56:09;;;;;;;40.10;23.17;;;;;;;;;;6224107;28;20056;-69
2022/12/02 02:59:13;;;;;;;39.38;23.60;;;;;;;;;;6222245;28;20049;-71
2022/12/02 03:02:14;;;;;;;40.08;23.33;;;;;;;;;;6223085;28;20049;-71
2022/12/02 03:05:17;;;;;;;37.88;23.58;;;;;;;;;;6220646;28;20081;-71
2022/12/02 03:08:19;;;;;;;36.40;21.58;;;;;;;;;;6220148;28;20400;-72
2022/12/02 03:11:22;;;;;;;34.78;22.77;;;;;;;;;;6219883;28;20057;-71
2022/12/02 03:14:24;;;;;;;38.33;23.70;;;;;;;;;;6221652;28;20270;-72
2022/12/02 03:17:26;;;;;;;38.63;23.27;;;;;;;;;;6215847;28;20113;-69
2022/12/02 03:20:28;;;;;;;35.90;22.27;;;;;;;;;;6220308;28;20237;-71
2022/12/02 03:23:31;;;;;;;37.90;22.95;;;;;;;;;;6221081;28;20063;-71
2022/12/02 03:26:34;;;;;;;36.03;22.60;;;;;;;;;;6221749;28;20043;-70
2022/12/02 03:29:36;;;;;;;39.60;22.53;;;;;;;;;;6222808;28;20112;-70
2022/12/02 03:32:38;;;;;;;33.90;19.60;;;;;;;;;;6223522;28;20058;-69
2022/12/02 03:35:40;;;;;;;32.28;20.27;;;;;;;;;;6219723;28;20244;-71
2022/12/02 03:38:42;;;;;;;34.03;19.73;;;;;;;;;;6221246;28;20057;-71
2022/12/02 03:41:46;;;;;;;32.83;20.10;;;;;;;;;;6219148;28;20049;-71
2022/12/02 03:44:48;;;;;;;33.92;20.55;;;;;;;;;;6221148;28;20054;-72
2022/12/02 03:47:50;;;;;;;32.22;18.65;;;;;;;;;;6217225;28;20050;-71
2022/12/02 03:50:53;;;;;;;31.85;19.48;;;;;;;;;;6222582;28;20325;-70
2022/12/02 03:53:55;;;;;;;26.88;17.80;;;;;;;;;;6220013;28;20037;-72
2022/12/02 03:56:58;;;;;;;31.52;17.20;;;;;;;;;;6223686;28;20763;-71
2022/12/02 04:00:00;;;;;;;28.38;17.52;;;;;;;;;;6223982;28;20046;-71
2022/12/02 04:03:02;;;;;;;29.90;17.23;;;;;;;;;;6227166;28;20443;-71
2022/12/02 04:06:03;;;;;;;31.52;18.15;;;;;;;;;;6225407;28;20285;-70
2022/12/02 04:09:05;;;;;;;27.50;16.25;;;;;;;;;;6228391;28;20042;-71
2022/12/02 04:12:08;;;;;;;28.40;15.73;;;;;;;;;;6225157;28;20306;-70
2022/12/02 04:15:10;;;;;;;37.30;18.10;;;;;;;;;;6226217;28;20053;-71
2022/12/02 04:18:12;;;;;;;25.38;15.52;;;;;;;;;;6227520;28;20104;-68
2022/12/02 04:21:14;;;;;;;26.60;15.30;;;;;;;;;;6226008;28;20103;-71
2022/12/02 04:24:16;;;;;;;26.70;16.42;;;;;;;;;;6226169;28;20329;-70
2022/12/02 04:27:19;;;;;;;25.90;16.15;;;;;;;;;;6224545;28;20241;-71
2022/12/02 04:30:21;;;;;;;25.92;14.68;;;;;;;;;;6224140;28;20974;-70
2022/12/02 04:33:22;;;;;;;29.02;15.05;;;;;;;;;;6222255;28;20049;-71
2022/12/02 04:36:24;;;;;;;24.58;14.18;;;;;;;;;;6224993;28;20054;-71
2022/12/02 04:39:26;;;;;;;21.90;14.43;;;;;;;;;;6225587;28;20054;-72
2022/12/02 04:42:29;;;;;;;24.70;15.30;;;;;;;;;;6229558;28;20097;-71
2022/12/02 04:45:30;;;;;;;22.85;14.60;;;;;;;;;;6223823;28;20054;-70
2022/12/02 04:48:32;;;;;;;25.90;15.15;;;;;;;;;;6225194;28;20103;-70
2022/12/02 04:51:34;;;;;;;24.90;15.57;;;;;;;;;;6223997;28;20088;-70
2022/12/02 04:54:35;;;;;;;23.75;15.40;;;;;;;;;;6226780;28;20058;-70
2022/12/02 04:57:38;;;;;;;27.27;15.55;;;;;;;;;;6220964;28;20049;-70
2022/12/02 05:00:40;;;;;;;27.05;15.93;;;;;;;;;;6223865;28;20096;-71
2022/12/02 05:03:41;;;;;;;28.38;15.43;;;;;;;;;;6221783;28;20053;-71
2022/12/02 05:06:43;;;;;;;28.00;15.50;;;;;;;;;;6224973;28;20061;-69
2022/12/02 05:09:45;;;;;;;29.48;15.60;;;;;;;;;;6224846;28;20084;-71
2022/12/02 05:12:48;;;;;;;26.05;14.85;;;;;;;;;;6223839;28;20054;-70
2022/12/02 05:15:49;;;;;;;28.10;16.20;;;;;;;;;;6222785;28;20061;-69
2022/12/02 05:18:51;;;;;;;26.33;16.10;;;;;;;;;;6224193;28;20377;-70
2022/12/02 05:21:53;;;;;;;26.30;14.60;;;;;;;;;;6229378;28;20269;-69
2022/12/02 05:24:54;;;;;;;23.50;14.45;;;;;;;;;;6223506;28;20363;-70
2022/12/02 05:27:57;;;;;;;24.58;14.80;;;;;;;;;;6226578;28;20337;-70
2022/12/02 05:30:59;;;;;;;24.50;14.95;;;;;;;;;;6222353;28;20242;-69
2022/12/02 05:34:01;;;;;;;24.50;15.10;;;;;;;;;;6223938;28;20089;-69
2022/12/02 05:37:03;;;;;;;28.58;16.50;;;;;;;;;;6219708;28;20361;-69
2022/12/02 05:40:06;;;;;;;26.33;15.52;;;;;;;;;;6221511;28;20121;-70
2022/12/02 05:43:17;;;;;;;25.05;14.98;;;;;;;;;;6224470;28;20109;-70
2022/12/02 05:46:20;;;;;;;26.70;15.20;;;;;;;;;;6224470;28;20211;-70
2022/12/02 05:49:23;;;;;;;26.00;16.48;;;;;;;;;;6223090;28;20062;-70
2022/12/02 05:52:26;;;;;;;28.77;16.60;;;;;;;;;;6222875;28;20085;-70
2022/12/02 05:55:28;;;;;;;28.10;16.75;;;;;;;;;;6222170;28;20088;-70
2022/12/02 05:58:31;;;;;;;25.77;16.17;;;;;;;;;;6227787;28;20104;-68
2022/12/02 06:01:35;;;;;;;25.77;16.20;;;;;;;;;;6221374;28;20392;-69
2022/12/02 06:04:36;;;;;;;32.85;17.38;;;;;;;;;;6221080;28;20105;-69
2022/12/02 06:07:38;;;;;;;25.08;16.55;;;;;;;;;;6218833;28;20263;-69
2022/12/02 06:10:42;;;;;;;27.30;17.80;;;;;;;;;;6221837;28;20097;-71
2022/12/02 06:13:45;;;;;;;28.15;16.38;;;;;;;;;;6224366;28;20042;-70
2022/12/02 06:16:48;;;;;;;27.52;16.20;;;;;;;;;;6228563;28;20058;-70
2022/12/02 06:19:53;;;;;;;26.92;16.33;;;;;;;;;;6223406;28;20258;-71
2022/12/02 06:22:55;;;;;;;28.83;17.38;;;;;;;;;;6218819;28;20050;-71
2022/12/02 06:25:58;;;;;;;32.35;17.27;;;;;;;;;;6222394;28;20461;-69
2022/12/02 06:29:03;;;;;;;26.55;17.10;;;;;;;;;;6221577;28;20061;-69
2022/12/02 06:32:06;;;;;;;29.65;18.00;;;;;;;;;;6219542;28;20149;-72
2022/12/02 06:35:20;;;;;;;33.90;18.60;;;;;;;;;;6221679;28;20219;-71
2022/12/02 06:38:29;;;;;;;32.15;17.60;;;;;;;;;;6224032;28;20269;-68
2022/12/02 06:41:32;;;;;;;32.63;17.90;;;;;;;;;;6220053;28;20281;-69
2022/12/02 06:48:13;;;;;;;32.17;19.42;;;;;;;;;;6223980;28;20077;-67
2022/12/02 06:51:17;;;;;;;32.30;18.25;;;;;;;;;;6222276;28;20052;-69
2022/12/02 06:54:20;;;;;;;34.72;17.80;;;;;;;;;;6223914;28;20053;-68
2022/12/02 06:57:22;;;;;;;34.30;18.58;;;;;;;;;;6223018;28;20057;-68
2022/12/02 07:00:25;;;;;;;35.25;19.48;;;;;;;;;;6220172;28;20136;-68
2022/12/02 07:03:30;;;;;;;34.13;19.02;;;;;;;;;;6221767;28;20050;-71
2022/12/02 07:06:33;;;;;;;28.90;17.52;;;;;;;;;;6224689;28;20318;-68
2022/12/02 07:09:39;;;;;;;32.72;18.05;;;;;;;;;;6217867;28;20062;-69
2022/12/02 07:12:43;;;;;;;28.85;18.25;;;;;;;;;;6219522;28;20049;-69
2022/12/02 07:15:46;;;;;;;31.95;18.77;;;;;;;;;;6223379;28;20049;-72
2022/12/02 07:18:48;;;;;;;35.92;18.60;;;;;;;;;;6220606;28;20361;-71
2022/12/02 07:21:50;;;;;;;33.17;18.92;;;;;;;;;;6219621;28;20042;-71
2022/12/02 07:24:55;;;;;;;31.95;18.95;;;;;;;;;;6220373;28;20096;-72
2022/12/02 07:27:56;;;;;;;32.08;17.75;;;;;;;;;;6218869;28;20259;-73
2022/12/02 07:31:01;;;;;;;28.15;17.42;;;;;;;;;;6216790;28;20046;-70
2022/12/02 07:34:03;;;;;;;33.45;18.77;;;;;;;;;;6216304;28;20297;-70
2022/12/02 07:37:04;;;;;;;30.63;17.77;;;;;;;;;;6219462;28;20072;-73
2022/12/02 07:40:07;;;;;;;28.83;16.83;;;;;;;;;;6217978;28;20058;-70
2022/12/02 07:43:09;;;;;;;29.15;16.88;;;;;;;;;;6215194;28;20318;-70
2022/12/02 07:46:12;;;;;;;29.15;16.83;;;;;;;;;;6222139;28;20237;-72
2022/12/02 07:49:14;;;;;;;28.30;16.42;;;;;;;;;;6220287;28;20054;-72
2022/12/02 07:52:15;;;;;;;28.77;15.15;;;;;;;;;;6217551;28;20046;-72
2022/12/02 07:55:17;;;;;;;29.42;15.48;;;;;;;;;;6216489;28;20061;-70
2022/12/02 07:58:19;;;;;;;27.35;15.05;;;;;;;;;;6217351;28;20096;-72
2022/12/02 08:01:23;;;;;;;25.40;14.63;;;;;;;;;;6218085;28;20066;-71
2022/12/02 08:04:24;;;;;;;27.60;14.70;;;;;;;;;;6219362;28;20073;-72
2022/12/02 08:07:26;;;;;;;26.80;14.65;;;;;;;;;;6218287;28;20073;-72
2022/12/02 08:10:27;;;;;;;23.35;13.40;;;;;;;;;;6218960;28;20368;-72
2022/12/02 08:13:29;;;;;;;24.08;13.38;;;;;;;;;;6216034;28;20349;-72
2022/12/02 08:16:32;;;;;;;23.27;12.10;;;;;;;;;;6217672;28;20058;-72
2022/12/02 08:19:34;;;;;;;19.60;12.07;;;;;;;;;;6219199;28;20065;-71
2022/12/02 08:22:36;;;;;;;22.23;12.40;;;;;;;;;;6221384;28;20111;-70
2022/12/02 08:25:37;;;;;;;24.33;12.27;;;;;;;;;;6219368;28;20061;-72
2022/12/02 08:28:39;;;;;;;17.75;11.25;;;;;;;;;;6221567;28;20050;-71
2022/12/02 08:31:42;;;;;;;20.20;11.45;;;;;;;;;;6218698;28;20058;-72
2022/12/02 08:34:44;;;;;;;16.92;10.55;;;;;;;;;;6222110;28;20071;-72
2022/12/02 08:37:46;;;;;;;16.25;10.27;;;;;;;;;;6223754;28;20054;-72
2022/12/02 08:40:47;;;;;;;16.67;9.98;;;;;;;;;;6222246;28;20069;-72
2022/12/02 08:43:50;;;;;;;18.42;10.88;;;;;;;;;;6224518;28;20053;-72
2022/12/02 08:46:53;;;;;;;19.85;10.50;;;;;;;;;;6224831;28;20104;-72
2022/12/02 08:49:55;;;;;;;15.23;10.07;;;;;;;;;;6223335;28;20077;-71
2022/12/02 08:52:56;;;;;;;14.88;10.20;;;;;;;;;;6226508;28;20065;-69
2022/12/02 08:55:58;;;;;;;17.50;10.75;;;;;;;;;;6223839;28;20041;-72
2022/12/02 08:58:59;;;;;;;14.20;8.23;;;;;;;;;;6222412;28;20053;-71
2022/12/02 09:02:02;;;;;;;16.52;8.77;;;;;;;;;;6225223;28;20054;-71
2022/12/02 09:05:05;;;;;;;16.33;9.57;;;;;;;;;;6223443;28;20334;-72
2022/12/02 09:08:07;;;;;;;15.48;9.10;;;;;;;;;;6227283;28;20069;-72
2022/12/02 09:11:08;;;;;;;13.43;7.70;;;;;;;;;;6225409;28;20053;-70
2022/12/02 09:14:10;;;;;;;17.52;9.32;;;;;;;;;;6224505;28;20054;-70
2022/12/02 09:17:13;;;;;;;14.55;8.80;;;;;;;;;;6222162;28;20057;-70
2022/12/02 09:20:15;;;;;;;13.65;7.78;;;;;;;;;;6225115;28;20072;-71
2022/12/02 09:23:17;;;;;;;12.30;8.15;;;;;;;;;;6222697;28;20117;-70
2022/12/02 09:26:19;;;;;;;12.27;7.55;;;;;;;;;;6224318;28;20258;-71
2022/12/02 09:29:21;;;;;;;13.57;7.47;;;;;;;;;;6219911;28;20057;-70
2022/12/02 09:32:24;;;;;;;14.90;7.90;;;;;;;;;;6221212;28;20061;-70
2022/12/02 09:35:25;;;;;;;14.15;7.82;;;;;;;;;;6223184;28;20046;-72
2022/12/02 09:38:30;;;;;;;11.25;7.03;;;;;;;;;;6222914;28;20050;-72
2022/12/02 09:41:31;;;;;;;12.15;7.53;;;;;;;;;;6222554;28;20053;-71
2022/12/02 09:44:33;;;;;;;10.80;7.43;;;;;;;;;;6225359;28;20368;-71
2022/12/02 09:47:36;;;;;;;12.65;6.82;;;;;;;;;;6224658;28;20054;-72
2022/12/02 09:50:38;;;;;;;9.82;6.47;;;;;;;;;;6221926;28;20042;-69
2022/12/02 09:53:42;;;;;;;12.02;7.10;;;;;;;;;;6225171;28;20050;-71
2022/12/02 09:56:44;;;;;;;11.13;7.32;;;;;;;;;;6224117;28;20074;-70
2022/12/02 09:59:45;;;;;;;11.05;6.72;;;;;;;;;;6224373;28;20137;-70
2022/12/02 10:02:50;;;;;;;11.40;6.80;;;;;;;;;;6223706;28;20045;-71
2022/12/02 10:05:52;;;;;;;10.75;6.95;;;;;;;;;;6222527;28;20478;-69
2022/12/02 10:08:55;;;;;;;12.93;7.78;;;;;;;;;;6225977;28;20100;-71
2022/12/02 10:11:57;;;;;;;10.43;7.00;;;;;;;;;;6223898;28;20265;-71
2022/12/02 10:14:59;;;;;;;12.50;8.23;;;;;;;;;;6222190;28;20104;-70
2022/12/02 10:18:09;;;;;;;12.90;7.22;;;;;;;;;;6222056;28;20180;-71
2022/12/02 10:21:10;;;;;;;12.38;7.82;;;;;;;;;;6220131;28;20922;-71
2022/12/02 10:24:12;;;;;;;11.30;7.75;;;;;;;;;;6220529;28;20115;-69
2022/12/02 10:27:24;;;;;;;11.65;7.63;;;;;;;;;;6222380;28;20060;-70
2022/12/02 10:30:27;;;;;;;12.15;8.40;;;;;;;;;;6223639;28;20058;-69
2022/12/02 10:33:32;;;;;;;12.45;7.57;;;;;;;;;;6222002;28;20083;-70
2022/12/02 10:36:35;;;;;;;14.82;8.60;;;;;;;;;;6222332;28;20058;-70
2022/12/02 10:39:37;;;;;;;12.82;8.20;;;;;;;;;;6221971;28;20223;-70
2022/12/02 10:42:39;;;;;;;11.60;7.68;;;;;;;;;;6223670;28;20109;-70
2022/12/02 10:45:40;;;;;;;12.15;7.90;;;;;;;;;;6218746;28;20050;-70
2022/12/02 10:48:43;;;;;;;13.25;8.13;;;;;;;;;;6222933;28;20066;-70
2022/12/02 10:51:45;;;;;;;14.90;9.27;;;;;;;;;;6222393;28;20065;-69
2022/12/02 10:54:50;;;;;;;14.18;8.88;;;;;;;;;;6222833;28;20112;-70
2022/12/02 10:57:52;;;;;;;11.20;7.78;;;;;;;;;;6222322;28;20369;-70
2022/12/02 11:00:53;;;;;;;11.52;7.55;;;;;;;;;;6221038;28;20066;-73
2022/12/02 11:03:56;;;;;;;11.43;6.05;;;;;;;;;;6223298;28;20049;-71
2022/12/02 11:06:58;;;;;;;9.85;6.13;;;;;;;;;;6222812;28;20046;-72
2022/12/02 11:10:00;;;;;;;11.43;7.20;;;;;;;;;;6218963;28;20053;-69
2022/12/02 11:13:08;;;;;;;10.77;7.00;;;;;;;;;;6220752;28;20052;-70
2022/12/02 11:16:55;;;;;;;11.32;6.50;;;;;;;;;;6220538;28;20101;-70
2022/12/02 11:20:33;;;;;;;8.85;6.13;;;;;;;;;;6218837;28;20092;-69
2022/12/02 11:23:35;;;;;;;8.73;5.50;;;;;;;;;;6220911;28;20049;-69
2022/12/02 11:27:07;;;;;;;9.07;5.97;;;;;;;;;;6221851;28;20053;-72
2022/12/02 11:30:35;;;;;;;8.32;5.60;;;;;;;;;;6222601;28;20276;-72
2022/12/02 11:34:00;;;;;;;8.50;5.90;;;;;;;;;;6220735;28;20050;-70
2022/12/02 11:37:48;;;;;;;10.57;5.65;;;;;;;;;;6221602;28;20362;-70
2022/12/02 11:41:00;;;;;;;9.50;5.32;;;;;;;;;;6220839;28;20427;-70
2022/12/02 11:44:25;;;;;;;9.25;5.20;;;;;;;;;;6221602;28;20173;-70
2022/12/02 11:47:30;;;;;;;8.95;5.70;;;;;;;;;;6220717;28;20054;-72
2022/12/02 11:50:38;;;;;;;9.35;5.55;;;;;;;;;;6222186;28;20050;-72
2022/12/02 11:53:40;;;;;;;7.13;4.90;;;;;;;;;;6222159;28;20262;-71
2022/12/02 11:56:45;;;;;;;8.40;5.80;;;;;;;;;;6223958;28;20064;-72
2022/12/02 11:59:46;;;;;;;9.30;5.78;;;;;;;;;;6220623;28;20057;-71
2022/12/02 12:02:59;;;;;;;8.23;5.68;;;;;;;;;;6222099;28;20050;-71
2022/12/02 12:06:09;;;;;;;9.82;5.72;;;;;;;;;;6219739;28;20061;-72
2022/12/02 12:09:12;;;;;;;8.68;5.88;;;;;;;;;;6221157;28;20354;-72
2022/12/02 12:12:17;;;;;;;11.48;6.43;;;;;;;;;;6219327;28;20057;-71
2022/12/02 12:15:18;;;;;;;11.20;6.63;;;;;;;;;;6219079;28;20121;-71
2022/12/02 12:18:50;;;;;;;9.98;6.28;;;;;;;;;;6223970;28;20054;-72
2022/12/02 12:21:54;;;;;;;11.30;7.13;;;;;;;;;;6119030;29;20063;-71
2022/12/02 12:25:31;;;;;;;11.07;7.00;;;;;;;;;;6121567;29;20051;-71
2022/12/02 12:28:35;;;;;;;10.80;6.68;;;;;;;;;;6120743;29;20104;-70
2022/12/02 12:31:37;;;;;;;10.48;7.22;;;;;;;;;;6122362;29;20062;-71
2022/12/02 12:34:39;;;;;;;12.57;7.22;;;;;;;;;;6121004;29;20331;-72
2022/12/02 12:37:40;;;;;;;11.80;7.25;;;;;;;;;;6120936;29;20051;-71
2022/12/02 12:40:42;;;;;;;11.48;6.68;;;;;;;;;;6121521;29;20060;-68
2022/12/02 12:43:45;;;;;;;11.25;7.03;;;;;;;;;;6117543;29;20051;-70
2022/12/02 12:46:47;;;;;;;11.90;7.90;;;;;;;;;;6120912;29;20308;-71
2022/12/02 12:49:48;;;;;;;13.15;7.55;;;;;;;;;;6121944;29;20055;-71
2022/12/02 12:52:50;;;;;;;11.77;7.22;;;;;;;;;;6118902;29;20283;-70
2022/12/02 12:55:52;;;;;;;11.30;6.88;;;;;;;;;;6178664;28;20070;-70
2022/12/02 12:58:55;;;;;;;10.77;6.95;;;;;;;;;;6222502;28;20306;-70
2022/12/02 13:01:56;;;;;;;12.65;7.53;;;;;;;;;;6225947;28;20054;-70
2022/12/02 13:04:58;;;;;;;13.15;7.95;;;;;;;;;;6220229;28;20234;-71
2022/12/02 13:08:00;;;;;;;12.32;7.43;;;;;;;;;;6226153;28;20053;-70
2022/12/02 13:11:01;;;;;;;12.95;7.38;;;;;;;;;;6224540;28;20108;-71
2022/12/02 13:14:04;;;;;;;14.13;7.32;;;;;;;;;;6224913;28;20061;-71
2022/12/02 13:17:06;;;;;;;11.32;7.60;;;;;;;;;;6223940;28;20050;-72
2022/12/02 13:20:09;;;;;;;16.73;7.55;;;;;;;;;;6222484;28;20730;-72
2022/12/02 13:23:10;;;;;;;10.70;7.93;;;;;;;;;;6221903;28;20242;-71
2022/12/02 13:26:12;;;;;;;11.77;7.95;;;;;;;;;;6222576;28;20783;-72
2022/12/02 13:29:15;;;;;;;13.02;7.05;;;;;;;;;;6224573;28;20199;-71
2022/12/02 13:32:17;;;;;;;10.95;6.90;;;;;;;;;;6225427;28;20209;-71
2022/12/02 13:35:19;;;;;;;14.07;6.85;;;;;;;;;;6222963;28;20054;-71
2022/12/02 13:38:21;;;;;;;11.73;7.15;;;;;;;;;;6222458;28;20361;-71
2022/12/02 13:41:23;;;;;;;11.35;7.82;;;;;;;;;;6224285;28;20062;-71
2022/12/02 13:44:26;;;;;;;10.38;6.82;;;;;;;;;;6224340;28;20057;-71
2022/12/02 13:47:27;;;;;;;13.90;7.18;;;;;;;;;;6221635;28;20050;-71
2022/12/02 13:50:29;;;;;;;11.52;7.43;;;;;;;;;;6225519;28;20054;-71
2022/12/02 13:53:31;;;;;;;11.07;7.53;;;;;;;;;;6224634;28;20116;-71
2022/12/02 13:56:32;;;;;;;11.25;7.32;;;;;;;;;;6226585;28;20376;-71
2022/12/02 13:59:35;;;;;;;11.40;7.55;;;;;;;;;;6222538;28;20052;-70
2022/12/02 14:02:37;;;;;;;12.43;8.05;;;;;;;;;;6221936;28;20053;-69
2022/12/02 14:05:39;;;;;;;11.60;7.53;;;;;;;;;;6214542;28;20574;-71
2022/12/02 14:08:41;;;;;;;12.70;7.68;;;;;;;;;;6211919;28;20123;-70
2022/12/02 14:11:42;;;;;;;13.10;8.10;;;;;;;;;;6219964;28;20057;-71
2022/12/02 14:14:45;;;;;;;12.18;7.82;;;;;;;;;;6224104;28;20046;-71
2022/12/02 14:17:47;;;;;;;17.63;8.80;;;;;;;;;;6218107;28;20113;-70
2022/12/02 14:20:49;;;;;;;14.25;8.35;;;;;;;;;;6220568;28;20116;-70
2022/12/02 14:23:50;;;;;;;11.70;7.53;;;;;;;;;;6220165;28;20065;-70
2022/12/02 14:26:52;;;;;;;12.38;7.43;;;;;;;;;;6219709;28;20281;-70
2022/12/02 14:29:55;;;;;;;10.77;7.35;;;;;;;;;;6218472;28;20058;-70
2022/12/02 14:32:57;;;;;;;11.27;7.38;;;;;;;;;;6218676;28;21257;-70
2022/12/02 14:35:58;;;;;;;11.95;7.85;;;;;;;;;;6221093;28;20113;-70
2022/12/02 14:39:00;;;;;;;12.77;7.75;;;;;;;;;;6216317;28;20045;-70
2022/12/02 14:42:02;;;;;;;13.10;8.23;;;;;;;;;;6222525;28;20058;-70
2022/12/02 14:45:06;;;;;;;12.30;7.68;;;;;;;;;;6223207;28;20050;-70
2022/12/02 14:48:07;;;;;;;;;;;;;;;;;;6221032;28;20054;-71
2022/12/02 14:51:09;;;;;;;12.98;7.80;;;;;;;;;;6220777;28;20545;-70
2022/12/02 14:54:11;;;;;;;12.98;9.27;;;;;;;;;;6221934;28;20112;-70
2022/12/02 14:57:14;;;;;;;12.32;8.48;;;;;;;;;;6223635;28;20342;-71
2022/12/02 15:00:18;;;;;;;12.07;7.90;;;;;;;;;;6221353;28;20069;-70
2022/12/02 15:03:19;;;;;;;;;;;;;;;;;;6224094;28;20049;-71
2022/12/02 15:06:21;;;;;;;13.07;7.63;;;;;;;;;;6218649;28;19973;-71
2022/12/02 15:09:23;;;;;;;14.82;8.18;;;;;;;;;;6221930;28;20103;-70
2022/12/02 15:12:24;;;;;;;12.60;8.40;;;;;;;;;;6225081;28;20104;-71
2022/12/02 15:15:27;;;;;;;10.95;8.02;;;;;;;;;;6219763;28;20289;-70
2022/12/02 15:18:29;;;;;;;13.48;8.00;;;;;;;;;;6220030;28;20065;-70
2022/12/02 15:21:31;;;;;;;11.95;7.72;;;;;;;;;;6221198;28;20065;-71
2022/12/02 15:24:32;;;;;;;12.70;8.70;;;;;;;;;;6219758;28;20062;-70
2022/12/02 15:27:34;;;;;;;12.65;8.98;;;;;;;;;;6217356;28;20042;-70
2022/12/02 15:30:37;;;;;;;12.75;8.13;;;;;;;;;;6220422;28;20054;-70
2022/12/02 15:33:38;;;;;;;13.65;8.02;;;;;;;;;;6221383;28;20123;-70
2022/12/02 15:36:40;;;;;;;16.65;8.77;;;;;;;;;;6219264;28;20064;-70
2022/12/02 15:39:42;;;;;;;14.70;8.88;;;;;;;;;;6222263;28;20065;-70
2022/12/02 15:42:43;;;;;;;14.27;8.05;;;;;;;;;;6220963;28;20096;-70
2022/12/02 15:45:46;;;;;;;12.35;7.85;;;;;;;;;;6219912;28;20050;-70
2022/12/02 15:48:48;;;;;;;13.18;8.23;;;;;;;;;;6219615;28;20181;-70
2022/12/02 15:51:50;;;;;;;12.55;7.93;;;;;;;;;;6223113;28;20388;-70
2022/12/02 15:54:51;;;;;;;12.30;7.65;;;;;;;;;;6222531;28;20072;-69
2022/12/02 15:57:53;;;;;;;12.65;7.68;;;;;;;;;;6224039;28;20050;-70
2022/12/02 16:00:57;;;;;;;14.07;8.30;;;;;;;;;;6223872;28;20045;-70
2022/12/02 16:03:58;;;;;;;14.50;8.47;;;;;;;;;;6227494;28;20128;-70
2022/12/02 16:07:00;;;;;;;12.60;8.40;;;;;;;;;;6224482;28;20480;-70
2022/12/02 16:10:02;;;;;;;13.02;8.52;;;;;;;;;;6224051;28;20041;-69
2022/12/02 16:13:03;;;;;;;13.27;8.70;;;;;;;;;;6224005;28;20061;-70
2022/12/02 16:16:07;;;;;;;13.38;8.65;;;;;;;;;;6226076;28;20096;-70
2022/12/02 16:19:08;;;;;;;18.17;9.27;;;;;;;;;;6222447;28;20104;-69
2022/12/02 16:22:10;;;;;;;14.10;8.10;;;;;;;;;;6222404;28;20050;-70
2022/12/02 16:25:11;;;;;;;13.88;7.80;;;;;;;;;;6224703;28;20062;-70
2022/12/02 16:28:13;;;;;;;13.02;8.80;;;;;;;;;;6226744;28;20042;-70
2022/12/02 16:31:16;;;;;;;13.63;8.35;;;;;;;;;;6224499;28;20081;-70
2022/12/02 16:34:18;;;;;;;14.10;8.30;;;;;;;;;;6223370;28;20735;-70
2022/12/02 16:37:21;;;;;;;13.75;8.70;;;;;;;;;;6227279;28;20088;-70
2022/12/02 16:40:23;;;;;;;12.60;8.57;;;;;;;;;;6224923;28;20053;-69
2022/12/02 16:43:24;;;;;;;12.90;8.60;;;;;;;;;;6222279;28;20058;-68
2022/12/02 16:46:27;;;;;;;14.32;8.77;;;;;;;;;;6224060;28;20054;-70
2022/12/02 16:49:29;;;;;;;13.82;9.57;;;;;;;;;;6223011;28;20069;-70
2022/12/02 16:52:31;;;;;;;15.77;9.40;;;;;;;;;;6222879;28;20058;-70
2022/12/02 16:55:32;;;;;;;14.50;8.65;;;;;;;;;;6222567;28;20334;-69
2022/12/02 16:58:34;;;;;;;13.77;9.65;;;;;;;;;;6222674;28;20223;-70
2022/12/02 17:01:37;;;;;;;14.48;8.98;;;;;;;;;;6221769;28;20400;-69
2022/12/02 17:04:39;;;;;;;13.13;9.40;;;;;;;;;;6223450;28;20054;-69
2022/12/02 17:07:40;;;;;;;15.70;9.68;;;;;;;;;;6222290;28;20140;-69
2022/12/02 17:10:42;;;;;;;15.40;9.85;;;;;;;;;;6225378;28;20057;-70
2022/12/02 17:13:44;;;;;;;15.43;9.85;;;;;;;;;;6222861;28;20172;-69
2022/12/02 17:16:47;;;;;;;18.00;10.05;;;;;;;;;;6224312;28;20053;-70
2022/12/02 17:19:49;;;;;;;12.20;8.68;;;;;;;;;;6224289;28;20045;-69
2022/12/02 17:22:50;;;;;;;15.25;9.27;;;;;;;;;;6225061;28;20112;-71
2022/12/02 17:25:52;;;;;;;16.05;9.70;;;;;;;;;;6221601;28;20046;-70
2022/12/02 17:28:54;;;;;;;16.10;10.10;;;;;;;;;;6223909;28;20050;-70
2022/12/02 17:31:57;;;;;;;17.75;10.05;;;;;;;;;;6221345;28;20281;-70
2022/12/02 17:34:58;;;;;;;18.30;10.23;;;;;;;;;;6222444;28;20054;-70
2022/12/02 17:38:00;;;;;;;13.57;9.50;;;;;;;;;;6226948;28;20041;-70
2022/12/02 17:41:11;;;;;;;18.35;9.50;;;;;;;;;;6223706;28;20066;-69
2022/12/02 17:44:12;;;;;;;18.75;10.70;;;;;;;;;;6223432;28;20060;-69
2022/12/02 17:47:15;;;;;;;14.95;9.55;;;;;;;;;;6222413;28;20061;-69
2022/12/02 17:50:17;;;;;;;18.15;10.18;;;;;;;;;;6221804;28;20104;-69
2022/12/02 17:53:19;;;;;;;14.25;9.18;;;;;;;;;;6219898;28;20329;-70
2022/12/02 17:56:21;;;;;;;15.32;10.15;;;;;;;;;;6218007;28;20058;-70
2022/12/02 17:59:23;;;;;;;13.30;9.55;;;;;;;;;;6222131;28;20371;-70
2022/12/02 18:02:26;;;;;;;14.25;9.10;;;;;;;;;;6223685;28;20058;-70